Pointe Jarry — FIHM — position and weather

sailwx.info

Track history (hours):
 
Tides and Currents Weather Stations Pressure Air Temp Water Temp Dewpoint Dewpoint Depression Visibility Wind Speed Wind Dir Waves Ship Positions

Pointe Jarry

Last reported at 2017-Nov-19 15:04 UTC. Time now 2017-Nov-21 18:58 UTC.
Position N 16°14' W 061°32'.

Length 30 m.

MMSI: 329002900.

Date/timePositionNaut miles runAvg speedWind from/ knotsBaromVisibWave heightAir tempDewpointWater temp
2017-Nov-19 15:04N 16°14' W 061°32'0 1.0
2017-Nov-19 14:39N 16°14' W 061°33'0 0.1
2017-Nov-19 14:21N 16°14' W 061°33'0 0.5
2017-Nov-19 14:00N 16°14' W 061°33'0 0.0
2017-Nov-18 01:01N 16°14' W 061°32'0 6.6
2017-Nov-18 01:00N 16°14' W 061°32'0 0.1
2017-Nov-17 15:53N 16°14' W 061°33'0 0.1
2017-Nov-17 11:20N 16°14' W 061°32'0 0.0
2017-Nov-17 01:37N 16°14' W 061°32'0 3.0
2017-Nov-17 01:30N 16°14' W 061°33'0 0.3
2017-Nov-17 00:21N 16°14' W 061°33'1 0.0
2017-Nov-16 09:54N 16°14' W 061°32'0 0.6
2017-Nov-16 09:29N 16°14' W 061°32'0 0.1
2017-Nov-16 06:22N 16°14' W 061°33'0 0.7
2017-Nov-16 05:55N 16°14' W 061°33'0 0.1
2017-Nov-16 01:48N 16°14' W 061°32'0 0.0
2017-Nov-15 18:05N 16°14' W 061°32'20 2.6
2017-Nov-15 10:32N 15°57' W 061°43'0 6.1
2017-Nov-15 10:30N 15°57' W 061°43'1 0.3
2017-Nov-15 08:20N 15°57' W 061°43'7 6.2
2017-Nov-15 07:08N 15°57' W 061°36'9 6.5
2017-Nov-15 05:45N 16°05' W 061°31'2 6.6
2017-Nov-15 05:24N 16°07' W 061°31'3 6.5
2017-Nov-15 04:53N 16°11' W 061°31'2 6.5
2017-Nov-15 04:30N 16°13' W 061°32'  
2017-Nov-11 05:23N 16°14' W 061°33'0 0.4
2017-Nov-11 04:58N 16°14' W 061°32'0 0.1
2017-Nov-11 02:40N 16°14' W 061°32'0 0.9
2017-Nov-11 02:28N 16°14' W 061°32'0 0.0
2017-Nov-10 16:44N 16°14' W 061°32'1 2.3
2017-Nov-10 16:28N 16°14' W 061°33'1 1.0
2017-Nov-10 15:56N 16°14' W 061°32'0 0.1
2017-Nov-10 14:43N 16°14' W 061°32'0 0.0
2017-Nov-10 10:19N 16°14' W 061°32'0 0.5
2017-Nov-10 09:52N 16°14' W 061°33'0 0.2
2017-Nov-10 09:26N 16°14' W 061°32'0 0.0
2017-Nov-09 18:24N 16°14' W 061°32'1 0.3
2017-Nov-09 16:13N 16°14' W 061°33'  
Track history (hours):
 
Tides and Currents Weather Stations Pressure Air Temp Water Temp Dewpoint Dewpoint Depression Visibility Wind Speed Wind Dir Waves Ship Positions

Pointe Jarry

Last reported at 2017-Nov-19 15:04 UTC. Time now 2017-Nov-21 18:58 UTC.
Position N 16°14' W 061°32'.

Length 30 m.

MMSI: 329002900.

Date/timePositionNaut miles runAvg speedWind from/ knotsBaromVisibWave heightAir tempDewpointWater temp
2017-Nov-19 15:04N 16°14' W 061°32'0 1.0
2017-Nov-19 14:39N 16°14' W 061°33'0 0.1
2017-Nov-19 14:21N 16°14' W 061°33'0 0.5
2017-Nov-19 14:00N 16°14' W 061°33'0 0.0
2017-Nov-18 01:01N 16°14' W 061°32'0 6.6
2017-Nov-18 01:00N 16°14' W 061°32'0 0.1
2017-Nov-17 15:53N 16°14' W 061°33'0 0.1
2017-Nov-17 11:20N 16°14' W 061°32'0 0.0
2017-Nov-17 01:37N 16°14' W 061°32'0 3.0
2017-Nov-17 01:30N 16°14' W 061°33'0 0.3
2017-Nov-17 00:21N 16°14' W 061°33'1 0.0
2017-Nov-16 09:54N 16°14' W 061°32'0 0.6
2017-Nov-16 09:29N 16°14' W 061°32'0 0.1
2017-Nov-16 06:22N 16°14' W 061°33'0 0.7
2017-Nov-16 05:55N 16°14' W 061°33'0 0.1
2017-Nov-16 01:48N 16°14' W 061°32'0 0.0
2017-Nov-15 18:05N 16°14' W 061°32'20 2.6
2017-Nov-15 10:32N 15°57' W 061°43'0 6.1
2017-Nov-15 10:30N 15°57' W 061°43'1 0.3
2017-Nov-15 08:20N 15°57' W 061°43'7 6.2
2017-Nov-15 07:08N 15°57' W 061°36'9 6.5
2017-Nov-15 05:45N 16°05' W 061°31'2 6.6
2017-Nov-15 05:24N 16°07' W 061°31'3 6.5
2017-Nov-15 04:53N 16°11' W 061°31'2 6.5
2017-Nov-15 04:30N 16°13' W 061°32'  
2017-Nov-11 05:23N 16°14' W 061°33'0 0.4
2017-Nov-11 04:58N 16°14' W 061°32'0 0.1
2017-Nov-11 02:40N 16°14' W 061°32'0 0.9
2017-Nov-11 02:28N 16°14' W 061°32'0 0.0
2017-Nov-10 16:44N 16°14' W 061°32'1 2.3
2017-Nov-10 16:28N 16°14' W 061°33'1 1.0
2017-Nov-10 15:56N 16°14' W 061°32'0 0.1
2017-Nov-10 14:43N 16°14' W 061°32'0 0.0
2017-Nov-10 10:19N 16°14' W 061°32'0 0.5
2017-Nov-10 09:52N 16°14' W 061°33'0 0.2
2017-Nov-10 09:26N 16°14' W 061°32'0 0.0
2017-Nov-09 18:24N 16°14' W 061°32'1 0.3
2017-Nov-09 16:13N 16°14' W 061°33'  

Dump ship's entire track history